createdAt,value
2019-05-06T00:01:07.481Z,3.33
2019-05-06T00:03:36.010Z,3.10
2019-05-06T00:06:04.655Z,3.60
2019-05-06T00:08:34.535Z,3.60
2019-05-06T00:11:04.865Z,2.90
2019-05-06T00:13:34.350Z,3.47
2019-05-06T00:16:03.947Z,2.60
2019-05-06T00:18:34.252Z,3.15
2019-05-06T00:21:04.689Z,3.70
2019-05-06T00:23:35.330Z,3.25
2019-05-06T00:26:13.656Z,3.47
2019-05-06T00:28:49.880Z,3.47
2019-05-06T00:31:23.996Z,3.00
2019-05-06T00:33:54.048Z,4.10
2019-05-06T00:36:23.711Z,3.10
2019-05-06T00:38:54.027Z,3.65
2019-05-06T00:41:27.001Z,3.97
2019-05-06T00:43:55.460Z,3.98
2019-05-06T00:46:24.285Z,3.60
2019-05-06T00:48:54.308Z,4.33
2019-05-06T00:51:24.139Z,3.33
2019-05-06T00:53:54.557Z,3.70
2019-05-06T00:56:24.331Z,3.80
2019-05-06T00:58:54.461Z,4.30
2019-05-06T01:01:28.768Z,3.93
2019-05-06T01:03:53.675Z,3.72
2019-05-06T01:06:22.277Z,3.10
2019-05-06T01:08:50.918Z,4.30
2019-05-06T01:11:19.403Z,3.80
2019-05-06T01:13:54.393Z,4.50
2019-05-06T01:16:22.379Z,3.75
2019-05-06T01:18:50.838Z,4.03
2019-05-06T01:21:19.321Z,4.40
2019-05-06T01:23:47.835Z,3.98
2019-05-06T01:26:16.467Z,4.55
2019-05-06T01:28:45.536Z,4.53
2019-05-06T01:31:14.189Z,3.80
2019-05-06T01:33:42.618Z,5.62
2019-05-06T01:36:11.178Z,4.83
2019-05-06T01:38:47.049Z,4.97
2019-05-06T01:41:33.920Z,5.43
2019-05-06T01:44:04.273Z,4.97
2019-05-06T01:46:33.957Z,4.93
2019-05-06T01:49:04.275Z,5.55
2019-05-06T01:51:34.612Z,5.60
2019-05-06T01:54:03.817Z,4.97
2019-05-06T01:56:33.695Z,6.00
2019-05-06T01:59:04.374Z,5.37
2019-05-06T02:01:34.183Z,5.90
2019-05-06T02:04:04.401Z,5.42
2019-05-06T02:06:34.289Z,5.13
2019-05-06T02:09:04.565Z,4.80
2019-05-06T02:11:33.739Z,6.47
2019-05-06T02:14:04.567Z,6.20
2019-05-06T02:16:34.365Z,5.60
2019-05-06T02:19:04.104Z,4.75
2019-05-06T02:21:34.547Z,5.53
2019-05-06T02:24:07.058Z,5.72
2019-05-06T02:26:35.542Z,6.17
2019-05-06T02:29:05.715Z,5.35
2019-05-06T02:31:54.638Z,5.67
2019-05-06T02:34:39.938Z,6.20
2019-05-06T02:37:14.646Z,5.33
2019-05-06T02:39:43.825Z,5.95
2019-05-06T02:42:13.140Z,7.47
2019-05-06T02:44:44.122Z,6.40
2019-05-06T02:47:25.511Z,5.23
2019-05-06T02:49:55.613Z,6.92
2019-05-06T02:52:24.116Z,6.25
2019-05-06T02:54:53.744Z,6.03
2019-05-06T02:57:23.730Z,6.97
2019-05-06T02:59:55.415Z,5.85
2019-05-06T03:02:38.030Z,6.25
2019-05-06T03:04:53.072Z,7.25
2019-05-06T03:07:23.319Z,7.43
2019-05-06T03:09:53.236Z,6.37
2019-05-06T03:12:22.834Z,6.50
2019-05-06T03:14:53.277Z,7.37
2019-05-06T03:17:23.493Z,7.00
2019-05-06T03:19:53.352Z,6.65
2019-05-06T03:22:35.288Z,7.20
2019-05-06T03:25:07.099Z,6.35
2019-05-06T03:27:35.611Z,6.65
2019-05-06T03:30:06.433Z,6.78
2019-05-06T03:32:41.461Z,6.62
2019-05-06T03:35:24.975Z,7.83
2019-05-06T03:37:36.983Z,7.70
2019-05-06T03:40:05.915Z,7.53
2019-05-06T03:42:34.435Z,7.40
2019-05-06T03:45:04.618Z,8.65
2019-05-06T03:47:37.235Z,8.90
2019-05-06T03:50:06.004Z,8.50
2019-05-06T03:52:34.605Z,7.28
2019-05-06T03:55:03.847Z,7.10
2019-05-06T03:57:35.439Z,7.28
2019-05-06T04:00:04.904Z,7.75
2019-05-06T04:02:33.980Z,9.15
2019-05-06T04:05:03.993Z,9.40
2019-05-06T04:07:34.113Z,8.58
2019-05-06T04:10:03.744Z,7.97
2019-05-06T04:12:33.236Z,8.13
2019-05-06T04:15:03.866Z,8.60
2019-05-06T04:17:36.830Z,8.45
2019-05-06T04:20:12.793Z,9.50
2019-05-06T04:22:47.912Z,8.93
2019-05-06T04:25:23.755Z,9.40
2019-05-06T04:27:54.182Z,9.05
2019-05-06T04:30:24.374Z,8.45
2019-05-06T04:32:53.305Z,9.35
2019-05-06T04:35:23.007Z,9.00
2019-05-06T04:37:53.930Z,9.55
2019-05-06T04:40:23.779Z,10.75
2019-05-06T04:42:52.772Z,9.80
2019-05-06T04:45:23.652Z,9.70
2019-05-06T04:47:53.669Z,10.60
2019-05-06T04:50:24.185Z,9.93
2019-05-06T04:53:05.430Z,11.05
2019-05-06T04:55:35.168Z,10.43
2019-05-06T04:58:04.932Z,10.08
2019-05-06T05:00:34.451Z,11.27
2019-05-06T05:03:03.169Z,11.60
2019-05-06T05:05:33.135Z,11.43
2019-05-06T05:08:02.480Z,11.40
2019-05-06T05:10:43.154Z,11.57
2019-05-06T05:13:19.144Z,10.30
2019-05-06T05:15:52.520Z,9.50
2019-05-06T05:18:25.407Z,10.55
2019-05-06T05:20:54.373Z,10.33
2019-05-06T05:23:22.959Z,10.18
2019-05-06T05:25:52.183Z,11.37
2019-05-06T05:28:22.322Z,10.93
2019-05-06T05:30:52.226Z,10.77
2019-05-06T05:33:22.469Z,11.43
2019-05-06T05:35:52.583Z,10.07
2019-05-06T05:38:22.763Z,10.00
2019-05-06T05:40:52.412Z,10.67
2019-05-06T05:43:25.513Z,11.48
2019-05-06T05:45:54.432Z,11.10
2019-05-06T05:48:42.332Z,10.70
2019-05-06T05:51:12.737Z,9.23
2019-05-06T05:53:42.577Z,9.15
2019-05-06T05:56:12.340Z,9.73
2019-05-06T05:58:42.414Z,9.23
2019-05-06T06:01:12.710Z,9.03
2019-05-06T06:03:42.153Z,9.73
2019-05-06T06:06:12.645Z,10.50
2019-05-06T06:08:42.929Z,9.30
2019-05-06T06:11:22.933Z,9.00
2019-05-06T06:13:52.309Z,9.70
2019-05-06T06:16:25.361Z,10.57
2019-05-06T06:19:04.190Z,9.48
2019-05-06T06:21:34.923Z,11.10
2019-05-06T06:24:08.077Z,7.85
2019-05-06T06:26:36.639Z,8.53
2019-05-06T06:29:05.285Z,7.47
2019-05-06T06:31:38.365Z,7.27
2019-05-06T06:34:12.941Z,8.20
2019-05-06T06:36:45.914Z,8.40
2019-05-06T06:39:16.013Z,7.95
2019-05-06T06:41:44.503Z,7.23
2019-05-06T06:44:14.780Z,7.40
2019-05-06T06:46:43.276Z,7.23
2019-05-06T06:49:12.738Z,8.28
2019-05-06T06:51:42.538Z,6.65
2019-05-06T06:54:12.277Z,7.40
2019-05-06T06:56:45.018Z,7.23
2019-05-06T06:59:22.221Z,8.25
2019-05-06T07:01:54.882Z,6.83
2019-05-06T07:04:24.975Z,6.03
2019-05-06T07:06:55.097Z,7.27
2019-05-06T07:09:23.670Z,7.17
2019-05-06T07:11:52.618Z,6.80
2019-05-06T07:14:22.629Z,8.05
2019-05-06T07:16:53.205Z,8.67
2019-05-06T07:19:28.795Z,8.63
2019-05-06T07:21:58.649Z,6.75
2019-05-06T07:24:27.106Z,6.83
2019-05-06T07:26:57.231Z,6.37
2019-05-06T07:29:26.756Z,7.65
2019-05-06T07:31:55.385Z,9.00
2019-05-06T07:34:23.841Z,8.55
2019-05-06T07:36:52.648Z,6.90
2019-05-06T07:39:23.949Z,7.60
2019-05-06T07:41:59.209Z,7.10
2019-05-06T07:44:29.299Z,7.80
2019-05-06T07:46:59.435Z,7.07
2019-05-06T07:49:27.965Z,7.65
2019-05-06T07:51:56.450Z,8.40
2019-05-06T07:54:24.916Z,8.00
2019-05-06T07:56:53.398Z,8.30
2019-05-06T07:59:22.493Z,8.30
2019-05-06T08:01:53.888Z,7.43
2019-05-06T08:04:23.057Z,8.33
2019-05-06T08:06:52.309Z,8.40
2019-05-06T08:09:22.133Z,9.13
2019-05-06T08:11:52.889Z,8.97
2019-05-06T08:14:22.546Z,7.28
2019-05-06T08:17:04.249Z,8.50
2019-05-06T08:19:33.608Z,7.90
2019-05-06T08:22:06.455Z,8.83
2019-05-06T08:24:35.488Z,9.15
2019-05-06T08:27:03.969Z,7.43
2019-05-06T08:29:33.055Z,8.33
2019-05-06T08:32:02.979Z,8.00
2019-05-06T08:34:31.497Z,7.95
2019-05-06T08:37:02.421Z,7.63
2019-05-06T08:39:32.673Z,8.55
2019-05-06T08:42:02.684Z,7.80
2019-05-06T08:44:32.276Z,7.58
2019-05-06T08:47:02.522Z,8.40
2019-05-06T08:49:32.727Z,7.60
2019-05-06T08:52:08.838Z,8.07
2019-05-06T08:54:43.334Z,7.87
2019-05-06T08:57:11.982Z,7.30
2019-05-06T08:59:42.302Z,7.12
2019-05-06T09:02:10.819Z,7.30
2019-05-06T09:04:39.285Z,6.50
2019-05-06T09:07:07.784Z,7.10
2019-05-06T09:09:36.242Z,6.90
2019-05-06T09:12:04.774Z,7.75
2019-05-06T09:14:33.266Z,9.05
2019-05-06T09:17:02.957Z,6.50
2019-05-06T09:19:33.164Z,6.70
2019-05-06T09:22:02.476Z,7.87
2019-05-06T09:24:32.106Z,8.60
2019-05-06T09:27:05.299Z,7.13
2019-05-06T09:29:47.410Z,6.20
2019-05-06T09:32:22.523Z,6.90
2019-05-06T09:34:53.936Z,8.83
2019-05-06T09:37:24.011Z,8.38
2019-05-06T09:39:53.513Z,7.58
2019-05-06T09:42:23.011Z,6.97
2019-05-06T09:44:54.080Z,6.58
2019-05-06T09:47:32.982Z,7.90
2019-05-06T09:50:02.764Z,7.67
2019-05-06T09:52:33.293Z,7.60
2019-05-06T09:55:05.687Z,7.25
2019-05-06T09:57:52.267Z,6.45
2019-05-06T10:00:23.542Z,8.00
2019-05-06T10:02:52.714Z,8.00
2019-05-06T10:05:21.357Z,8.43
2019-05-06T10:07:49.824Z,7.95
2019-05-06T10:10:18.384Z,8.68
2019-05-06T10:12:47.015Z,8.13
2019-05-06T10:15:15.851Z,7.78
2019-05-06T10:17:44.391Z,9.03
2019-05-06T10:20:12.907Z,8.18
2019-05-06T10:22:43.074Z,8.23
2019-05-06T10:25:13.370Z,8.35
2019-05-06T10:27:43.542Z,9.68
2019-05-06T10:30:13.737Z,8.15
2019-05-06T10:32:43.842Z,7.53
2019-05-06T10:35:13.074Z,8.95
2019-05-06T10:37:47.517Z,8.88
2019-05-06T10:40:48.681Z,9.10
2019-05-06T10:43:13.101Z,9.10
2019-05-06T10:45:42.660Z,9.23
2019-05-06T10:48:12.894Z,9.85
2019-05-06T10:50:43.062Z,9.20
2019-05-06T10:53:24.537Z,7.20
2019-05-06T10:55:57.473Z,8.47
2019-05-06T10:58:26.020Z,7.33
2019-05-06T11:00:56.209Z,8.03
2019-05-06T11:03:27.604Z,7.72
2019-05-06T11:05:55.914Z,6.90
2019-05-06T11:08:24.383Z,6.95
2019-05-06T11:10:53.632Z,6.93
2019-05-06T11:13:24.505Z,7.45
2019-05-06T11:15:55.241Z,7.50
2019-05-06T11:18:23.398Z,7.80
2019-05-06T11:20:53.034Z,7.97
2019-05-06T11:23:22.115Z,7.12
2019-05-06T11:25:52.590Z,7.03
2019-05-06T11:28:38.344Z,6.70
2019-05-06T11:31:13.896Z,7.20
2019-05-06T11:33:46.079Z,6.83
2019-05-06T11:36:16.206Z,5.70
2019-05-06T11:38:44.660Z,5.67
2019-05-06T11:41:13.344Z,5.08
2019-05-06T11:43:42.859Z,5.33
2019-05-06T11:46:12.310Z,5.83
2019-05-06T11:48:43.035Z,6.03
2019-05-06T11:51:12.897Z,5.77
2019-05-06T11:53:41.415Z,6.08
2019-05-06T11:56:09.933Z,5.80
2019-05-06T11:58:42.483Z,5.90
2019-05-06T12:01:20.484Z,5.13
2019-05-06T12:03:48.951Z,5.80
2019-05-06T12:06:17.454Z,5.40
2019-05-06T12:08:45.938Z,5.35
2019-05-06T12:11:14.481Z,5.17
2019-05-06T12:13:43.617Z,6.97
2019-05-06T12:16:14.088Z,5.37
2019-05-06T12:18:42.470Z,7.45
2019-05-06T12:21:14.597Z,5.53
2019-05-06T12:23:44.914Z,6.08
2019-05-06T12:26:13.227Z,6.27
2019-05-06T12:28:43.577Z,6.17
2019-05-06T12:31:13.190Z,6.67
2019-05-06T12:33:43.302Z,5.95
2019-05-06T12:36:20.448Z,5.10
2019-05-06T12:39:06.894Z,4.97
2019-05-06T12:41:36.970Z,5.40
2019-05-06T12:44:05.492Z,6.03
2019-05-06T12:46:35.645Z,5.40
2019-05-06T12:49:04.383Z,5.72
2019-05-06T12:51:32.907Z,5.67
2019-05-06T12:54:03.576Z,5.90
2019-05-06T12:56:31.624Z,4.50
2019-05-06T12:59:01.875Z,5.40
2019-05-06T13:01:33.504Z,4.70
2019-05-06T13:04:00.337Z,4.70
2019-05-06T13:06:28.830Z,5.10
2019-05-06T13:09:01.682Z,5.58
2019-05-06T13:11:27.427Z,4.77
2019-05-06T13:14:00.464Z,7.87
2019-05-06T13:16:26.026Z,9.33
2019-05-06T13:18:55.006Z,5.35
2019-05-06T13:21:23.579Z,5.37
2019-05-06T13:23:56.489Z,4.92
2019-05-06T13:26:25.051Z,5.13
2019-05-06T13:28:55.151Z,4.78
2019-05-06T13:31:25.562Z,5.37
2019-05-06T13:33:58.159Z,4.03
2019-05-06T13:36:26.673Z,4.80
2019-05-06T13:39:09.458Z,4.10
2019-05-06T13:41:25.653Z,4.23
2019-05-06T13:43:55.835Z,3.95
2019-05-06T13:46:25.935Z,3.67
2019-05-06T13:48:57.583Z,4.47
2019-05-06T13:51:32.363Z,4.00
2019-05-06T13:54:02.582Z,3.65
2019-05-06T13:56:33.112Z,4.60
2019-05-06T13:59:01.331Z,4.25
2019-05-06T14:01:44.101Z,4.40
2019-05-06T14:04:14.492Z,3.58
2019-05-06T14:06:43.375Z,4.60
2019-05-06T14:09:28.033Z,4.58
2019-05-06T14:11:42.320Z,4.33
2019-05-06T14:14:12.552Z,4.30
2019-05-06T14:16:42.684Z,4.00
2019-05-06T14:19:13.146Z,4.35
2019-05-06T14:21:43.223Z,4.80
2019-05-06T14:24:13.332Z,4.50
2019-05-06T14:26:45.919Z,7.83
2019-05-06T14:29:18.650Z,6.85
2019-05-06T14:31:48.778Z,4.80
2019-05-06T14:34:17.245Z,4.15
2019-05-06T14:36:45.710Z,4.77
2019-05-06T14:39:15.862Z,4.15
2019-05-06T14:41:53.484Z,4.13
2019-05-06T14:44:23.153Z,4.53
2019-05-06T14:46:59.319Z,4.10
2019-05-06T14:49:27.798Z,4.33
2019-05-06T14:51:56.264Z,4.30
2019-05-06T14:54:24.761Z,4.50
2019-05-06T14:57:12.170Z,4.97
2019-05-06T14:59:42.215Z,4.67
2019-05-06T15:02:13.071Z,3.77
2019-05-06T15:04:43.217Z,5.95
2019-05-06T15:07:12.777Z,4.80
2019-05-06T15:09:55.789Z,5.75
2019-05-06T15:12:13.105Z,4.00
2019-05-06T15:14:42.455Z,5.37
2019-05-06T15:17:11.209Z,5.43
2019-05-06T15:19:39.709Z,5.40
2019-05-06T15:22:08.183Z,11.08
2019-05-06T15:24:36.688Z,7.30
2019-05-06T15:27:05.346Z,10.40
2019-05-06T15:29:33.838Z,9.50
2019-05-06T15:32:13.108Z,8.78
2019-05-06T15:34:43.338Z,7.47
2019-05-06T15:37:16.455Z,10.40
2019-05-06T15:39:44.947Z,9.18
2019-05-06T15:42:13.417Z,4.57
2019-05-06T15:44:42.499Z,4.55
2019-05-06T15:47:13.245Z,4.03
2019-05-06T15:49:41.908Z,4.25
2019-05-06T15:52:12.445Z,4.67
2019-05-06T15:54:42.892Z,5.17
2019-05-06T15:57:10.896Z,4.37
2019-05-06T15:59:41.362Z,4.53
2019-05-06T16:02:09.496Z,4.50
2019-05-06T16:04:37.990Z,3.50
2019-05-06T16:07:06.465Z,3.70
2019-05-06T16:09:34.955Z,4.40
2019-05-06T16:12:03.485Z,3.77
2019-05-06T16:14:34.747Z,4.42
2019-05-06T16:17:02.092Z,3.80
2019-05-06T16:19:33.059Z,3.27
2019-05-06T16:22:00.679Z,3.60
2019-05-06T16:24:35.243Z,3.15
2019-05-06T16:27:03.742Z,3.33
2019-05-06T16:29:37.991Z,4.35
2019-05-06T16:32:08.663Z,4.03
2019-05-06T16:34:37.216Z,4.05
2019-05-06T16:37:05.967Z,3.60
2019-05-06T16:39:34.459Z,4.65
2019-05-06T16:42:03.750Z,5.50
2019-05-06T16:44:32.367Z,5.65
2019-05-06T16:47:02.909Z,4.10
2019-05-06T16:49:32.977Z,4.28
2019-05-06T16:52:02.546Z,3.90
2019-05-06T16:54:34.406Z,3.50
2019-05-06T16:57:06.416Z,4.47
2019-05-06T16:59:34.919Z,3.37
2019-05-06T17:02:05.033Z,3.42
2019-05-06T17:04:41.893Z,3.70
2019-05-06T17:07:11.792Z,4.37
2019-05-06T17:09:40.364Z,3.10
2019-05-06T17:12:08.894Z,3.73
2019-05-06T17:14:37.358Z,3.35
2019-05-06T17:17:05.859Z,3.50
2019-05-06T17:19:34.322Z,5.92
2019-05-06T17:22:03.173Z,4.47
2019-05-06T17:24:33.077Z,4.30
2019-05-06T17:27:02.733Z,4.80
2019-05-06T17:29:38.831Z,5.17
2019-05-06T17:32:17.376Z,4.53
2019-05-06T17:34:52.564Z,4.35
2019-05-06T17:37:37.724Z,4.07
2019-05-06T17:40:13.907Z,3.10
2019-05-06T17:42:42.221Z,3.77
2019-05-06T17:45:29.549Z,3.33
2019-05-06T17:47:59.722Z,4.95
2019-05-06T17:50:28.225Z,6.83
2019-05-06T17:52:56.688Z,6.35
2019-05-06T17:55:25.145Z,7.37
2019-05-06T17:57:53.636Z,5.97
2019-05-06T18:00:22.577Z,4.85
2019-05-06T18:02:52.674Z,4.70
2019-05-06T18:05:22.837Z,3.67
2019-05-06T18:07:51.429Z,3.98
2019-05-06T18:10:22.008Z,3.45
2019-05-06T18:12:52.724Z,3.70
2019-05-06T18:15:20.137Z,3.60
2019-05-06T18:17:48.630Z,3.60
2019-05-06T18:20:17.172Z,3.52
2019-05-06T18:22:45.663Z,3.27
2019-05-06T18:25:14.295Z,3.80
2019-05-06T18:27:43.138Z,4.83
2019-05-06T18:30:22.109Z,7.12
2019-05-06T18:32:42.374Z,7.47
2019-05-06T18:35:12.971Z,5.67
2019-05-06T18:37:42.642Z,6.40
2019-05-06T18:40:12.062Z,4.55
2019-05-06T18:42:42.943Z,4.67
2019-05-06T18:45:12.418Z,4.03
2019-05-06T18:47:42.231Z,4.90
2019-05-06T18:50:12.507Z,5.08
2019-05-06T18:52:42.999Z,5.50
2019-05-06T18:55:12.330Z,6.20
2019-05-06T18:57:42.393Z,9.03
2019-05-06T19:00:11.138Z,6.70
2019-05-06T19:02:39.636Z,6.47
2019-05-06T19:05:09.879Z,4.92
2019-05-06T19:07:38.368Z,10.87
2019-05-06T19:10:08.542Z,7.65
2019-05-06T19:12:41.036Z,6.00
2019-05-06T19:15:07.413Z,6.25
2019-05-06T19:17:35.909Z,11.67
2019-05-06T19:20:06.450Z,14.38
2019-05-06T19:22:34.951Z,13.50
2019-05-06T19:25:03.488Z,10.65
2019-05-06T19:27:33.278Z,8.20
2019-05-06T19:30:02.537Z,7.62
2019-05-06T19:32:34.908Z,7.83
2019-05-06T19:35:02.771Z,10.55
2019-05-06T19:37:32.836Z,17.50
2019-05-06T19:40:02.867Z,10.68
2019-05-06T19:42:43.712Z,7.80
2019-05-06T19:45:02.480Z,6.87
2019-05-06T19:47:31.908Z,7.00
2019-05-06T19:50:02.753Z,7.95
2019-05-06T19:52:32.603Z,7.60
2019-05-06T19:55:03.145Z,7.65
2019-05-06T19:57:32.375Z,7.90
2019-05-06T20:00:03.184Z,6.87
2019-05-06T20:02:32.005Z,6.50
2019-05-06T20:05:03.163Z,6.10
2019-05-06T20:07:35.889Z,6.90
2019-05-06T20:10:07.187Z,6.35
2019-05-06T20:12:40.029Z,5.80
2019-05-06T20:15:26.226Z,5.80
2019-05-06T20:17:54.711Z,6.45
2019-05-06T20:20:23.285Z,6.33
2019-05-06T20:22:51.777Z,6.25
2019-05-06T20:25:22.055Z,6.45
2019-05-06T20:27:52.524Z,6.78
2019-05-06T20:30:21.927Z,7.33
2019-05-06T20:32:52.119Z,5.33
2019-05-06T20:35:22.376Z,6.47
2019-05-06T20:37:53.231Z,6.28
2019-05-06T20:40:23.040Z,6.70
2019-05-06T20:42:51.372Z,7.55
2019-05-06T20:45:22.176Z,7.33
2019-05-06T20:47:52.305Z,7.90
2019-05-06T20:50:22.384Z,7.20
2019-05-06T20:52:51.976Z,8.13
2019-05-06T20:55:22.694Z,8.90
2019-05-06T20:57:52.733Z,8.25
2019-05-06T21:00:22.369Z,6.90
2019-05-06T21:02:53.286Z,7.90
2019-05-06T21:05:22.818Z,8.08
2019-05-06T21:07:52.561Z,7.17
2019-05-06T21:10:22.046Z,8.80
2019-05-06T21:12:52.993Z,9.00
2019-05-06T21:15:22.837Z,9.50
2019-05-06T21:17:50.942Z,8.90
2019-05-06T21:20:19.616Z,8.03
2019-05-06T21:22:49.262Z,8.98
2019-05-06T21:25:17.964Z,8.58
2019-05-06T21:27:46.406Z,8.15
2019-05-06T21:30:15.066Z,7.92
2019-05-06T21:32:43.538Z,9.03
2019-05-06T21:35:12.659Z,7.80
2019-05-06T21:37:42.380Z,7.97
2019-05-06T21:40:12.324Z,7.35
2019-05-06T21:42:43.054Z,7.60
2019-05-06T21:45:12.501Z,7.55
2019-05-06T21:47:44.246Z,8.63
2019-05-06T21:50:12.243Z,7.55
2019-05-06T21:52:42.838Z,7.47
2019-05-06T21:55:13.174Z,7.05
2019-05-06T21:57:42.271Z,6.73
2019-05-06T22:00:16.614Z,6.55
2019-05-06T22:02:43.253Z,6.00
2019-05-06T22:05:13.317Z,6.70
2019-05-06T22:07:43.486Z,7.27
2019-05-06T22:10:12.353Z,6.12
2019-05-06T22:12:43.204Z,6.00
2019-05-06T22:15:11.850Z,7.08
2019-05-06T22:17:42.757Z,6.67
2019-05-06T22:20:10.582Z,7.47
2019-05-06T22:22:42.429Z,7.10
2019-05-06T22:25:12.532Z,6.42
2019-05-06T22:27:44.227Z,6.00
2019-05-06T22:30:11.335Z,6.97
2019-05-06T22:32:45.843Z,6.72
2019-05-06T22:35:16.318Z,7.15
2019-05-06T22:37:45.106Z,7.03
2019-05-06T22:40:13.827Z,11.68
2019-05-06T22:42:43.099Z,9.40
2019-05-06T22:45:12.601Z,9.98
2019-05-06T22:47:42.150Z,8.10
2019-05-06T22:50:13.064Z,8.73
2019-05-06T22:52:42.130Z,8.77
2019-05-06T22:55:12.760Z,9.03
2019-05-06T22:57:42.232Z,10.07
2019-05-06T23:00:15.204Z,8.35
2019-05-06T23:02:45.379Z,9.03
2019-05-06T23:05:13.937Z,8.25
2019-05-06T23:07:42.443Z,8.67
2019-05-06T23:10:10.964Z,10.23
2019-05-06T23:12:39.426Z,9.30
2019-05-06T23:15:08.149Z,9.83
2019-05-06T23:17:36.638Z,7.93
2019-05-06T23:20:06.753Z,8.38
2019-05-06T23:22:35.213Z,10.03
2019-05-06T23:25:04.809Z,7.90
2019-05-06T23:27:33.305Z,8.90
2019-05-06T23:30:03.154Z,8.80
2019-05-06T23:32:32.623Z,9.20
2019-05-06T23:35:03.289Z,8.60
2019-05-06T23:37:30.342Z,8.70
2019-05-06T23:40:36.135Z,8.20
2019-05-06T23:43:42.610Z,8.98
2019-05-06T23:46:46.751Z,9.40
2019-05-06T23:49:52.684Z,8.93
2019-05-06T23:52:57.070Z,9.10
2019-05-06T23:56:02.926Z,8.97
2019-05-06T23:58:32.181Z,7.50
